Forside
METAR-TAF:

METAR-TAF

Lufthavne :

Arad, Rumænien

Breddekreds: 46-12N, længdekreds: 021-24E, højde: 117 m

Aktuelle vejr

Denne rapport blev lavet for 43 minutter siden, kl. 20:00 UTC
Vind 2 kt fra varierende retninger
Temperatur 29°C
Fugtighed 45%
Tryk 1011 hPa
Sigt 10 km eller mere

METAR: LRAR 162000Z AUTO VRB02KT 9999 NCD 29/16 Q1011 REDZ

Tid: 23:43 (20:43 UTC)

Vejrudsigter

Denne rapport blev lavet for 3 timer og 43 minutter siden, kl. 17:00 UTC
Foreløbig gælder fra 16 på 18 UTC til 17 på 03 UTC
Vind 6 kt fra syd
Sigt 10 km eller mere
ingen skyer under 1500m og ingen cumulonimbus

TAF: LRAR 161700Z 1618/1703 17006KT CAVOK

Vejrobservationer og prognoser fra mere end 4000 lufthavne (METAR og TAF).

De gule og røde prikker repræsenterer de meteorologiske stationer.

Flyt musen over at se navnet på stationen.

Så klik over at se vejr observationer og prognoser.

At skifte det kort: Klik på de grønne knapper med et sort kors for at zoome ind; på den grønne knap med en bindestreg for at zoome ud; eller på de grønne pile for tilstødende kort.


METAR-TAF: